createdAt,value
2023-05-25T00:00:26.455Z,25.13
2023-05-25T00:01:26.444Z,25.12
2023-05-25T00:02:26.528Z,25.13
2023-05-25T00:03:26.556Z,25.13
2023-05-25T00:04:26.525Z,25.13
2023-05-25T00:05:26.495Z,25.12
2023-05-25T00:06:26.501Z,25.13
2023-05-25T00:07:26.528Z,25.12
2023-05-25T00:08:26.565Z,25.11
2023-05-25T00:09:26.578Z,25.12
2023-05-25T00:10:26.602Z,25.12
2023-05-25T00:11:26.664Z,25.12
2023-05-25T00:12:26.612Z,25.12
2023-05-25T00:13:26.681Z,25.12
2023-05-25T00:14:26.662Z,25.11
2023-05-25T00:15:26.648Z,25.11
2023-05-25T00:16:26.685Z,25.11
2023-05-25T00:17:26.721Z,25.10
2023-05-25T00:18:26.738Z,25.11
2023-05-25T00:19:26.753Z,25.11
2023-05-25T00:20:26.777Z,25.10
2023-05-25T00:21:26.745Z,25.10
2023-05-25T00:22:26.792Z,25.09
2023-05-25T00:23:26.801Z,25.10
2023-05-25T00:24:26.843Z,25.08
2023-05-25T00:25:26.832Z,25.09
2023-05-25T00:26:26.840Z,25.08
2023-05-25T00:27:26.850Z,25.09
2023-05-25T00:28:26.889Z,25.08
2023-05-25T00:29:26.859Z,25.09
2023-05-25T00:30:26.898Z,25.08
2023-05-25T00:31:26.970Z,25.08
2023-05-25T00:32:26.996Z,25.09
2023-05-25T00:33:26.950Z,25.08
2023-05-25T00:34:26.957Z,25.08
2023-05-25T00:35:26.980Z,25.08
2023-05-25T00:36:27.013Z,25.08
2023-05-25T00:37:27.011Z,25.08
2023-05-25T00:38:27.028Z,25.08
2023-05-25T00:39:27.076Z,25.08
2023-05-25T00:40:27.163Z,25.09
2023-05-25T00:41:27.141Z,25.08
2023-05-25T00:42:27.136Z,25.08
2023-05-25T00:43:27.153Z,25.08
2023-05-25T00:44:27.176Z,25.08
2023-05-25T00:45:27.205Z,25.08
2023-05-25T00:46:28.209Z,25.07
2023-05-25T00:47:27.247Z,25.07
2023-05-25T00:48:27.240Z,25.07
2023-05-25T00:49:27.264Z,25.07
2023-05-25T00:50:27.279Z,25.07
2023-05-25T00:51:27.267Z,25.07
2023-05-25T00:52:27.315Z,25.07
2023-05-25T00:53:27.376Z,25.07
2023-05-25T00:54:27.358Z,25.07
2023-05-25T00:55:27.378Z,25.06
2023-05-25T00:56:27.433Z,25.07
2023-05-25T00:57:27.409Z,25.06
2023-05-25T00:58:27.522Z,25.06
2023-05-25T00:59:27.452Z,25.06
2023-05-25T01:00:27.520Z,25.06
2023-05-25T01:01:27.532Z,25.05
2023-05-25T01:02:27.521Z,25.05
2023-05-25T01:03:27.737Z,25.06
2023-05-25T01:04:27.591Z,25.05
2023-05-25T01:05:27.606Z,25.05
2023-05-25T01:06:27.629Z,25.04
2023-05-25T01:07:27.648Z,25.04
2023-05-25T01:08:27.659Z,25.05
2023-05-25T01:09:27.675Z,25.05
2023-05-25T01:11:43.583Z,25.30
2023-05-25T01:12:43.580Z,25.19
2023-05-25T01:13:43.566Z,25.14
2023-05-25T01:14:43.563Z,25.10
2023-05-25T01:15:43.727Z,25.08
2023-05-25T01:16:43.600Z,25.06
2023-05-25T01:17:43.559Z,25.06
2023-05-25T01:18:43.557Z,25.05
2023-05-25T01:19:44.800Z,25.05
2023-05-25T01:20:43.566Z,25.03
2023-05-25T01:21:43.513Z,25.03
2023-05-25T01:22:43.507Z,25.03
2023-05-25T01:23:43.534Z,25.03
2023-05-25T01:24:43.517Z,25.04
2023-05-25T01:25:43.691Z,25.03
2023-05-25T01:26:43.522Z,25.03
2023-05-25T01:27:43.473Z,25.03
2023-05-25T01:28:43.485Z,25.03
2023-05-25T01:29:43.484Z,25.03
2023-05-25T01:30:43.486Z,25.04
2023-05-25T01:31:43.489Z,25.03
2023-05-25T01:32:43.485Z,25.03
2023-05-25T01:33:43.467Z,25.03
2023-05-25T01:34:43.437Z,25.02
2023-05-25T01:35:43.679Z,25.02
2023-05-25T01:36:43.415Z,25.02
2023-05-25T01:37:43.410Z,25.02
2023-05-25T01:38:43.442Z,25.01
2023-05-25T01:39:43.423Z,25.01
2023-05-25T01:40:43.409Z,25.02
2023-05-25T01:41:43.421Z,25.01
2023-05-25T01:42:43.395Z,25.01
2023-05-25T01:43:43.402Z,25.01
2023-05-25T01:44:43.356Z,25.01
2023-05-25T01:45:43.513Z,25.01
2023-05-25T01:46:43.399Z,25.01
2023-05-25T01:47:43.402Z,25.01
2023-05-25T01:48:43.344Z,25.01
2023-05-25T01:49:43.358Z,25.00
2023-05-25T01:50:43.333Z,25.00
2023-05-25T01:51:43.394Z,25.01
2023-05-25T01:52:43.350Z,25.01
2023-05-25T01:53:43.350Z,25.00
2023-05-25T01:54:43.315Z,25.01
2023-05-25T01:55:43.523Z,25.00
2023-05-25T01:56:43.310Z,24.99
2023-05-25T01:57:43.292Z,24.99
2023-05-25T01:58:43.292Z,25.00
2023-05-25T01:59:43.298Z,25.00
2023-05-25T02:00:43.273Z,24.99
2023-05-25T02:01:43.388Z,25.00
2023-05-25T02:02:43.311Z,25.00
2023-05-25T02:03:43.274Z,25.01
2023-05-25T02:04:43.262Z,25.00
2023-05-25T02:05:43.376Z,24.99
2023-05-25T02:06:43.252Z,25.00
2023-05-25T02:07:43.239Z,25.00
2023-05-25T02:08:43.207Z,24.99
2023-05-25T02:09:43.201Z,25.00
2023-05-25T02:10:43.214Z,24.99
2023-05-25T02:11:43.195Z,24.99
2023-05-25T02:12:43.197Z,24.98
2023-05-25T02:13:43.211Z,24.99
2023-05-25T02:14:43.251Z,24.98
2023-05-25T02:15:43.468Z,24.99
2023-05-25T02:16:43.315Z,24.98
2023-05-25T02:17:43.388Z,24.99
2023-05-25T02:18:43.367Z,24.98
2023-05-25T02:19:43.388Z,24.98
2023-05-25T02:20:43.440Z,24.98
2023-05-25T02:21:43.422Z,24.97
2023-05-25T02:22:43.479Z,24.97
2023-05-25T02:23:43.480Z,24.98
2023-05-25T02:24:43.518Z,24.97
2023-05-25T02:25:43.697Z,24.98
2023-05-25T02:26:43.618Z,24.98
2023-05-25T02:27:43.573Z,24.98
2023-05-25T02:28:43.620Z,24.97
2023-05-25T02:29:43.604Z,24.97
2023-05-25T02:30:43.664Z,24.96
2023-05-25T02:31:43.732Z,24.97
2023-05-25T02:32:43.733Z,24.97
2023-05-25T02:33:43.721Z,24.96
2023-05-25T02:34:43.755Z,24.97
2023-05-25T02:35:43.915Z,24.96
2023-05-25T02:36:43.853Z,24.96
2023-05-25T02:37:43.865Z,24.96
2023-05-25T02:38:43.987Z,24.96
2023-05-25T02:39:43.913Z,24.95
2023-05-25T02:40:43.948Z,24.96
2023-05-25T02:41:43.955Z,24.96
2023-05-25T02:42:44.002Z,24.95
2023-05-25T02:43:44.015Z,24.95
2023-05-25T02:44:44.007Z,24.95
2023-05-25T02:45:44.250Z,24.96
2023-05-25T02:46:44.071Z,24.95
2023-05-25T02:47:44.187Z,24.95
2023-05-25T02:48:44.158Z,24.96
2023-05-25T02:49:44.139Z,24.95
2023-05-25T02:50:44.182Z,24.95
2023-05-25T02:51:44.203Z,24.95
2023-05-25T02:52:44.238Z,24.95
2023-05-25T02:53:44.281Z,24.95
2023-05-25T02:54:44.291Z,24.95
2023-05-25T02:55:44.409Z,24.94
2023-05-25T02:56:44.342Z,24.94
2023-05-25T02:57:44.391Z,24.93
2023-05-25T02:58:44.414Z,24.94
2023-05-25T02:59:44.450Z,24.94
2023-05-25T03:00:44.488Z,24.94
2023-05-25T03:01:44.476Z,24.93
2023-05-25T03:02:44.553Z,24.94
2023-05-25T03:03:44.619Z,24.93
2023-05-25T03:04:44.585Z,24.94
2023-05-25T03:05:44.672Z,24.94
2023-05-25T03:06:44.640Z,24.94
2023-05-25T03:07:44.656Z,24.94
2023-05-25T03:08:44.701Z,24.94
2023-05-25T03:09:44.718Z,24.94
2023-05-25T03:10:44.745Z,24.94
2023-05-25T03:11:44.770Z,24.93
2023-05-25T03:12:44.795Z,24.93
2023-05-25T03:13:44.839Z,24.93
2023-05-25T03:14:44.832Z,24.93
2023-05-25T03:15:45.015Z,24.93
2023-05-25T03:16:44.911Z,24.93
2023-05-25T03:17:44.950Z,24.93
2023-05-25T03:18:44.990Z,24.92
2023-05-25T03:19:45.021Z,24.92
2023-05-25T03:20:45.022Z,24.92
2023-05-25T03:21:45.034Z,24.92
2023-05-25T03:22:45.058Z,24.92
2023-05-25T03:23:45.104Z,24.92
2023-05-25T03:24:45.174Z,24.92
2023-05-25T03:25:45.343Z,24.92
2023-05-25T03:26:45.190Z,24.92
2023-05-25T03:27:45.208Z,24.91
2023-05-25T03:28:45.245Z,24.92
2023-05-25T03:29:45.290Z,24.92
2023-05-25T03:30:45.294Z,24.91
2023-05-25T03:31:45.359Z,24.91
2023-05-25T03:32:45.376Z,24.91
2023-05-25T03:33:45.378Z,24.92
2023-05-25T03:34:45.415Z,24.92
2023-05-25T03:35:45.687Z,24.92
2023-05-25T03:36:45.474Z,24.91
2023-05-25T03:37:45.491Z,24.92
2023-05-25T03:38:45.540Z,24.92
2023-05-25T03:39:45.575Z,24.92
2023-05-25T03:40:45.587Z,24.92
2023-05-25T03:41:45.703Z,24.92
2023-05-25T03:42:45.636Z,24.92
2023-05-25T03:43:45.692Z,24.92
2023-05-25T03:44:45.693Z,24.92
2023-05-25T03:45:45.928Z,24.92
2023-05-25T03:46:45.867Z,24.91
2023-05-25T03:47:45.818Z,24.91
2023-05-25T03:48:45.861Z,24.91
2023-05-25T03:49:45.971Z,24.92
2023-05-25T03:50:45.907Z,24.91
2023-05-25T03:51:45.930Z,24.91
2023-05-25T03:52:45.989Z,24.91
2023-05-25T03:53:46.447Z,24.91
2023-05-25T03:54:46.018Z,24.91
2023-05-25T03:55:46.229Z,24.91
2023-05-25T03:56:46.084Z,24.91
2023-05-25T03:57:46.127Z,24.91
2023-05-25T03:58:46.154Z,24.91
2023-05-25T03:59:46.158Z,24.91
2023-05-25T04:00:46.214Z,24.91
2023-05-25T04:01:46.254Z,24.91
2023-05-25T04:02:46.340Z,24.91
2023-05-25T04:03:46.441Z,24.90
2023-05-25T04:04:46.419Z,24.91
2023-05-25T04:05:46.533Z,24.91
2023-05-25T04:06:46.415Z,24.91
2023-05-25T04:07:46.431Z,24.91
2023-05-25T04:08:46.474Z,24.92
2023-05-25T04:09:46.472Z,24.91
2023-05-25T04:10:46.519Z,24.92
2023-05-25T04:11:46.548Z,24.92
2023-05-25T04:12:46.586Z,24.92
2023-05-25T04:13:46.634Z,24.92
2023-05-25T04:14:46.640Z,24.92
2023-05-25T04:15:46.720Z,24.92
2023-05-25T04:16:46.730Z,24.93
2023-05-25T04:17:46.780Z,24.92
2023-05-25T04:18:46.788Z,24.92
2023-05-25T04:19:46.809Z,24.92
2023-05-25T04:20:46.865Z,24.92
2023-05-25T04:21:46.858Z,24.93
2023-05-25T04:22:46.896Z,24.93
2023-05-25T04:23:46.947Z,24.92
2023-05-25T04:24:46.973Z,24.92
2023-05-25T04:25:47.159Z,24.92
2023-05-25T04:26:47.048Z,24.93
2023-05-25T04:27:47.074Z,24.93
2023-05-25T04:28:47.077Z,24.92
2023-05-25T04:29:47.132Z,24.92
2023-05-25T04:30:47.158Z,24.92
2023-05-25T04:31:47.263Z,24.92
2023-05-25T04:32:47.285Z,24.92
2023-05-25T04:33:47.255Z,24.92
2023-05-25T04:34:47.312Z,24.92
2023-05-25T04:35:47.304Z,24.92
2023-05-25T04:36:47.341Z,24.92
2023-05-25T04:37:47.397Z,24.93
2023-05-25T04:38:47.402Z,24.93
2023-05-25T04:39:47.443Z,24.93
2023-05-25T04:40:47.454Z,24.93
2023-05-25T04:41:47.487Z,24.93
2023-05-25T04:42:47.507Z,24.93
2023-05-25T04:44:04.616Z,24.93
2023-05-25T04:44:48.526Z,24.92
2023-05-25T04:45:47.782Z,24.93
2023-05-25T04:46:47.549Z,24.93
2023-05-25T04:47:47.559Z,24.93
2023-05-25T04:48:47.536Z,24.94
2023-05-25T04:49:47.516Z,24.94
2023-05-25T04:50:47.487Z,24.95
2023-05-25T04:51:47.511Z,24.95
2023-05-25T04:52:47.500Z,24.95
2023-05-25T04:53:47.508Z,24.96
2023-05-25T04:54:47.447Z,24.96
2023-05-25T04:55:47.468Z,24.95
2023-05-25T04:56:47.468Z,24.95
2023-05-25T04:57:47.468Z,24.95
2023-05-25T04:58:47.443Z,24.96
2023-05-25T04:59:47.455Z,24.96
2023-05-25T05:00:47.492Z,24.95
2023-05-25T05:01:47.540Z,24.96
2023-05-25T05:02:47.624Z,24.96
2023-05-25T05:03:47.569Z,24.96
2023-05-25T05:04:47.522Z,24.96
2023-05-25T05:05:47.582Z,24.96
2023-05-25T05:06:47.574Z,24.97
2023-05-25T05:07:47.690Z,24.98
2023-05-25T05:08:47.653Z,24.98
2023-05-25T05:09:47.681Z,24.98
2023-05-25T05:10:48.468Z,24.98
2023-05-25T05:11:47.744Z,24.99
2023-05-25T05:12:47.772Z,25.00
2023-05-25T05:13:47.817Z,25.01
2023-05-25T05:14:47.841Z,25.01
2023-05-25T05:15:47.844Z,25.02
2023-05-25T05:16:47.907Z,25.02
2023-05-25T05:17:47.946Z,25.01
2023-05-25T05:18:47.944Z,25.02
2023-05-25T05:19:47.959Z,25.03
2023-05-25T05:20:47.943Z,25.03
2023-05-25T05:21:47.989Z,25.03
2023-05-25T05:22:48.012Z,25.03
2023-05-25T05:23:48.034Z,25.03
2023-05-25T05:24:48.072Z,25.04
2023-05-25T05:25:48.100Z,25.03
2023-05-25T05:26:58.318Z,25.03
2023-05-25T05:27:49.088Z,25.03
2023-05-25T05:28:48.086Z,25.03
2023-05-25T05:29:48.116Z,25.04
2023-05-25T05:30:48.082Z,25.05
2023-05-25T05:31:48.269Z,25.05
2023-05-25T05:32:48.111Z,25.05
2023-05-25T05:33:48.111Z,25.06
2023-05-25T05:34:48.089Z,25.05
2023-05-25T05:35:48.031Z,25.06
2023-05-25T05:36:57.413Z,25.07
2023-05-25T05:37:49.038Z,25.07
2023-05-25T05:38:48.045Z,25.07
2023-05-25T05:39:48.039Z,25.09
2023-05-25T05:40:48.033Z,25.12
2023-05-25T05:41:47.998Z,25.13
2023-05-25T05:42:48.019Z,25.16
2023-05-25T05:43:48.015Z,25.18
2023-05-25T05:44:48.019Z,25.21
2023-05-25T05:45:47.998Z,25.23
2023-05-25T05:46:48.129Z,25.25
2023-05-25T05:47:48.018Z,25.28
2023-05-25T05:48:47.968Z,25.34
2023-05-25T05:49:47.995Z,25.37
2023-05-25T05:50:47.977Z,25.39
2023-05-25T05:51:47.934Z,25.41
2023-05-25T05:52:47.956Z,25.44
2023-05-25T05:53:47.983Z,25.46
2023-05-25T05:54:47.913Z,25.52
2023-05-25T05:55:51.235Z,25.56
2023-05-25T05:56:48.955Z,25.59
2023-05-25T05:57:47.920Z,25.62
2023-05-25T05:58:47.941Z,25.65
2023-05-25T05:59:47.969Z,25.69
2023-05-25T06:00:47.907Z,25.72
2023-05-25T06:01:48.014Z,25.76
2023-05-25T06:02:47.997Z,25.79
2023-05-25T06:03:47.921Z,25.82
2023-05-25T06:04:47.911Z,25.85
2023-05-25T06:05:48.161Z,25.87
2023-05-25T06:06:47.913Z,25.89
2023-05-25T06:07:47.898Z,25.92
2023-05-25T06:08:47.913Z,25.93
2023-05-25T06:09:47.945Z,25.97
2023-05-25T06:10:47.944Z,26.00
2023-05-25T06:11:54.497Z,26.02
2023-05-25T06:12:47.938Z,26.02
2023-05-25T06:13:47.964Z,26.05
2023-05-25T06:14:47.955Z,26.07
2023-05-25T06:15:47.948Z,26.08
2023-05-25T06:16:47.993Z,26.11
2023-05-25T06:17:47.984Z,26.13
2023-05-25T06:18:47.907Z,26.14
2023-05-25T06:19:47.916Z,26.15
2023-05-25T06:20:47.995Z,26.16
2023-05-25T06:21:47.905Z,26.17
2023-05-25T06:22:47.864Z,26.19
2023-05-25T06:23:47.889Z,26.21
2023-05-25T06:24:47.861Z,26.22
2023-05-25T06:25:47.878Z,26.23
2023-05-25T06:26:47.879Z,26.23
2023-05-25T06:27:47.851Z,26.24
2023-05-25T06:28:47.827Z,26.27
2023-05-25T06:29:47.852Z,26.29
2023-05-25T06:30:47.839Z,26.32
2023-05-25T06:31:47.853Z,26.31
2023-05-25T06:32:47.896Z,26.34
2023-05-25T06:33:47.832Z,26.34
2023-05-25T06:34:47.820Z,26.36
2023-05-25T06:35:47.982Z,26.37
2023-05-25T06:36:47.825Z,26.37
2023-05-25T06:37:47.798Z,26.38
2023-05-25T06:38:47.796Z,26.37
2023-05-25T06:39:47.802Z,26.37
2023-05-25T06:40:47.790Z,26.40
2023-05-25T06:41:47.757Z,26.42
2023-05-25T06:42:47.747Z,26.45
2023-05-25T06:43:47.754Z,26.47
2023-05-25T06:44:47.750Z,26.48
2023-05-25T06:45:47.947Z,26.49
2023-05-25T06:46:47.808Z,26.50
2023-05-25T06:47:47.734Z,26.50
2023-05-25T06:48:47.731Z,26.52
2023-05-25T06:49:47.715Z,26.53
2023-05-25T06:50:47.690Z,26.53
2023-05-25T06:51:47.708Z,26.54
2023-05-25T06:52:47.690Z,26.54
2023-05-25T06:53:47.682Z,26.55
2023-05-25T06:54:47.665Z,26.56
2023-05-25T06:55:47.650Z,26.57
2023-05-25T06:56:47.692Z,26.57
2023-05-25T06:57:47.681Z,26.59
2023-05-25T06:58:47.656Z,26.60
2023-05-25T06:59:47.638Z,26.62
2023-05-25T07:00:47.646Z,26.63
2023-05-25T07:01:47.728Z,26.64
2023-05-25T07:02:47.617Z,26.65
2023-05-25T07:03:47.604Z,26.66
2023-05-25T07:04:47.776Z,26.67
2023-05-25T07:05:47.581Z,26.68
2023-05-25T07:06:47.607Z,26.68
2023-05-25T07:07:47.584Z,26.69
2023-05-25T07:08:47.593Z,26.70
2023-05-25T07:09:47.599Z,26.71
2023-05-25T07:10:50.021Z,26.73
2023-05-25T07:11:47.560Z,26.74
2023-05-25T07:12:47.583Z,26.75
2023-05-25T07:13:47.599Z,26.76
2023-05-25T07:14:47.594Z,26.77
2023-05-25T07:15:47.800Z,26.78
2023-05-25T07:16:47.540Z,26.79
2023-05-25T07:17:47.612Z,26.80
2023-05-25T07:18:47.564Z,26.81
2023-05-25T07:19:47.542Z,26.82
2023-05-25T07:20:47.564Z,26.82
2023-05-25T07:21:47.523Z,26.82
2023-05-25T07:22:47.521Z,26.83
2023-05-25T07:23:47.499Z,26.83
2023-05-25T07:24:47.489Z,26.83
2023-05-25T07:25:47.540Z,26.85
2023-05-25T07:26:47.473Z,26.86
2023-05-25T07:27:47.467Z,26.86
2023-05-25T07:28:47.499Z,26.88
2023-05-25T07:29:47.482Z,26.89
2023-05-25T07:30:47.453Z,26.90
2023-05-25T07:31:47.590Z,26.90
2023-05-25T07:32:47.512Z,26.92
2023-05-25T07:33:47.454Z,26.94
2023-05-25T07:34:47.468Z,26.97
2023-05-25T07:35:47.505Z,26.98
2023-05-25T07:36:47.406Z,27.01
2023-05-25T07:37:47.415Z,27.03
2023-05-25T07:38:47.428Z,27.04
2023-05-25T07:39:47.386Z,27.06
2023-05-25T07:40:47.481Z,27.06
2023-05-25T07:41:47.397Z,27.07
2023-05-25T07:42:47.430Z,27.08
2023-05-25T07:43:47.382Z,27.07
2023-05-25T07:44:47.353Z,27.09
2023-05-25T07:45:47.372Z,27.04
2023-05-25T07:46:47.405Z,27.04
2023-05-25T07:47:47.367Z,27.02
2023-05-25T07:48:47.340Z,26.94
2023-05-25T07:49:47.324Z,26.85
2023-05-25T07:50:47.360Z,26.80
2023-05-25T07:51:47.309Z,26.75
2023-05-25T07:52:47.315Z,26.66
2023-05-25T07:53:47.328Z,26.60
2023-05-25T07:54:47.343Z,26.57
2023-05-25T07:55:47.401Z,26.55
2023-05-25T07:56:47.279Z,26.54
2023-05-25T07:57:47.306Z,26.55
2023-05-25T07:58:47.261Z,26.58
2023-05-25T07:59:47.264Z,26.62
2023-05-25T08:00:47.269Z,26.65
2023-05-25T08:01:47.286Z,26.69
2023-05-25T08:02:47.274Z,26.73
2023-05-25T08:03:49.609Z,26.75
2023-05-25T08:04:47.227Z,26.77
2023-05-25T08:05:47.212Z,26.79
2023-05-25T08:06:47.232Z,26.82
2023-05-25T08:07:47.237Z,26.84
2023-05-25T08:08:47.396Z,26.87
2023-05-25T08:09:47.167Z,26.90
2023-05-25T08:10:47.149Z,26.92
2023-05-25T08:11:47.171Z,26.93
2023-05-25T08:12:49.608Z,26.95
2023-05-25T08:13:47.135Z,26.96
2023-05-25T08:14:47.133Z,26.97
2023-05-25T08:15:47.210Z,26.99
2023-05-25T08:16:47.151Z,27.00
2023-05-25T08:17:47.131Z,27.01
2023-05-25T08:18:47.280Z,27.02
2023-05-25T08:19:47.133Z,27.04
2023-05-25T08:20:47.191Z,27.06
2023-05-25T08:21:47.100Z,27.07
2023-05-25T08:22:47.101Z,27.07
2023-05-25T08:23:47.084Z,27.08
2023-05-25T08:24:47.195Z,27.09
2023-05-25T08:25:47.258Z,27.10
2023-05-25T08:27:48.058Z,27.11
2023-05-25T08:28:47.057Z,27.13
2023-05-25T08:29:47.072Z,27.14
2023-05-25T08:30:47.074Z,27.16
2023-05-25T08:31:47.040Z,27.18
2023-05-25T08:32:47.171Z,27.18
2023-05-25T08:33:47.008Z,27.19
2023-05-25T08:34:46.988Z,27.20
2023-05-25T08:35:47.160Z,27.19
2023-05-25T08:36:47.001Z,27.20
2023-05-25T08:37:47.005Z,27.23
2023-05-25T08:38:46.957Z,27.25
2023-05-25T08:39:47.101Z,27.23
2023-05-25T08:40:46.951Z,27.20
2023-05-25T08:41:46.935Z,27.16
2023-05-25T08:42:46.952Z,27.13
2023-05-25T08:43:46.982Z,27.13
2023-05-25T08:44:46.961Z,27.10
2023-05-25T08:45:47.395Z,27.08
2023-05-25T08:46:47.023Z,27.06
2023-05-25T08:47:47.080Z,27.03
2023-05-25T08:48:47.186Z,27.02
2023-05-25T08:49:47.122Z,27.01
2023-05-25T08:50:47.178Z,27.01
2023-05-25T08:51:47.209Z,27.00
2023-05-25T08:52:47.245Z,27.00
2023-05-25T08:53:47.265Z,27.01
2023-05-25T08:54:47.285Z,27.02
2023-05-25T08:55:47.439Z,27.02
2023-05-25T08:56:47.372Z,27.04
2023-05-25T08:57:47.452Z,27.07
2023-05-25T08:58:47.466Z,27.08
2023-05-25T08:59:47.496Z,27.09
2023-05-25T09:00:47.497Z,27.10
2023-05-25T09:01:47.588Z,27.12
2023-05-25T09:02:47.818Z,27.14
2023-05-25T09:03:47.649Z,27.14
2023-05-25T09:04:47.569Z,27.15
2023-05-25T09:05:47.598Z,27.16
2023-05-25T09:06:54.215Z,27.17
2023-05-25T09:07:48.645Z,27.17
2023-05-25T09:08:47.607Z,27.18
2023-05-25T09:09:47.651Z,27.18
2023-05-25T09:10:47.601Z,27.20
2023-05-25T09:11:47.600Z,27.21
2023-05-25T09:12:47.564Z,27.21
2023-05-25T09:13:47.585Z,27.23
2023-05-25T09:14:47.596Z,27.25
2023-05-25T09:15:47.556Z,27.26
2023-05-25T09:16:47.632Z,27.26
2023-05-25T09:17:47.602Z,27.26
2023-05-25T09:18:47.593Z,27.27
2023-05-25T09:19:47.546Z,27.28
2023-05-25T09:20:47.992Z,27.28
2023-05-25T09:21:47.489Z,27.30
2023-05-25T09:22:47.512Z,27.32
2023-05-25T09:23:47.478Z,27.32
2023-05-25T09:24:47.485Z,27.34
2023-05-25T09:25:47.574Z,27.34
2023-05-25T09:26:48.176Z,27.35
2023-05-25T09:27:47.518Z,27.36
2023-05-25T09:28:47.502Z,27.36
2023-05-25T09:29:47.454Z,27.37
2023-05-25T09:30:47.453Z,27.39
2023-05-25T09:31:47.556Z,27.40
2023-05-25T09:32:47.527Z,27.40
2023-05-25T09:33:47.465Z,27.42
2023-05-25T09:34:47.480Z,27.42
2023-05-25T09:35:47.444Z,27.42
2023-05-25T09:36:47.602Z,27.44
2023-05-25T09:37:47.602Z,27.44
2023-05-25T09:38:47.622Z,27.44
2023-05-25T09:39:47.563Z,27.44
2023-05-25T09:40:47.662Z,27.43
2023-05-25T09:41:47.418Z,27.41
2023-05-25T09:42:47.397Z,27.42
2023-05-25T09:43:58.152Z,27.42
2023-05-25T09:44:48.404Z,27.42
2023-05-25T09:45:47.396Z,27.39
2023-05-25T09:46:47.414Z,27.32
2023-05-25T09:47:47.399Z,27.23
2023-05-25T09:48:47.332Z,27.19
2023-05-25T09:49:47.344Z,27.09
2023-05-25T09:50:49.604Z,27.01
2023-05-25T09:51:47.545Z,26.92
2023-05-25T09:52:47.574Z,26.84
2023-05-25T09:53:47.584Z,26.80
2023-05-25T09:54:47.684Z,26.81
2023-05-25T09:55:53.714Z,26.80
2023-05-25T09:56:48.591Z,26.78
2023-05-25T09:57:47.610Z,26.75
2023-05-25T09:58:47.575Z,26.73
2023-05-25T09:59:47.588Z,26.72
2023-05-25T10:00:47.607Z,26.72
2023-05-25T10:01:47.629Z,26.72
2023-05-25T10:02:47.633Z,26.71
2023-05-25T10:03:59.714Z,26.73
2023-05-25T10:04:48.652Z,26.71
2023-05-25T10:05:47.569Z,26.71
2023-05-25T10:06:47.558Z,26.71
2023-05-25T10:07:47.587Z,26.69
2023-05-25T10:08:47.529Z,26.68
2023-05-25T10:09:47.590Z,26.64
2023-05-25T10:10:47.532Z,26.59
2023-05-25T10:11:47.513Z,26.58
2023-05-25T10:12:47.505Z,26.56
2023-05-25T10:13:47.501Z,26.55
2023-05-25T10:14:47.498Z,26.55
2023-05-25T10:15:47.494Z,26.56
2023-05-25T10:16:47.506Z,26.58
2023-05-25T10:17:47.491Z,26.58
2023-05-25T10:18:47.496Z,26.58
2023-05-25T10:19:47.507Z,26.58
2023-05-25T10:20:47.524Z,26.58
2023-05-25T10:21:47.469Z,26.58
2023-05-25T10:22:47.495Z,26.57
2023-05-25T10:23:47.509Z,26.57
2023-05-25T10:24:47.554Z,26.60
2023-05-25T10:25:47.635Z,26.62
2023-05-25T10:26:47.772Z,26.64
2023-05-25T10:27:47.726Z,26.64
2023-05-25T10:28:47.747Z,26.58
2023-05-25T10:29:47.739Z,26.52
2023-05-25T10:30:47.757Z,26.54
2023-05-25T10:31:47.798Z,26.56
2023-05-25T10:32:47.847Z,26.59
2023-05-25T10:33:50.755Z,26.61
2023-05-25T10:34:47.754Z,26.62
2023-05-25T10:36:02.544Z,26.56
2023-05-25T10:36:48.734Z,26.41
2023-05-25T10:37:47.717Z,26.31
2023-05-25T10:38:47.703Z,26.21
2023-05-25T10:39:47.715Z,26.19
2023-05-25T10:40:47.710Z,26.13
2023-05-25T10:41:47.668Z,26.08
2023-05-25T10:42:47.674Z,25.80
2023-05-25T10:43:47.684Z,25.57
2023-05-25T10:44:47.691Z,25.59
2023-05-25T10:45:47.683Z,25.65
2023-05-25T10:46:47.652Z,25.73
2023-05-25T10:47:48.711Z,25.81
2023-05-25T10:48:47.614Z,25.87
2023-05-25T10:49:47.682Z,25.93
2023-05-25T10:50:47.741Z,25.99
2023-05-25T10:51:47.787Z,26.03
2023-05-25T10:52:47.806Z,26.03
2023-05-25T10:53:47.884Z,26.05
2023-05-25T10:54:47.887Z,26.08
2023-05-25T10:55:47.910Z,26.12
2023-05-25T10:56:47.921Z,26.16
2023-05-25T10:57:47.938Z,26.19
2023-05-25T10:58:47.968Z,26.24
2023-05-25T10:59:47.931Z,26.28
2023-05-25T11:00:48.021Z,26.32
2023-05-25T11:01:48.004Z,26.36
2023-05-25T11:02:48.111Z,26.41
2023-05-25T11:03:48.119Z,26.44
2023-05-25T11:04:48.188Z,26.48
2023-05-25T11:05:48.220Z,26.52
2023-05-25T11:06:48.302Z,26.56
2023-05-25T11:07:48.359Z,26.58
2023-05-25T11:08:48.422Z,26.61
2023-05-25T11:09:48.513Z,26.63
2023-05-25T11:10:48.549Z,26.56
2023-05-25T11:11:48.603Z,26.54
2023-05-25T11:12:48.643Z,26.54
2023-05-25T11:13:48.652Z,26.53
2023-05-25T11:14:48.637Z,26.53
2023-05-25T11:15:48.631Z,26.52
2023-05-25T11:16:51.684Z,26.51
2023-05-25T11:17:48.673Z,26.51
2023-05-25T11:18:48.638Z,26.51
2023-05-25T11:19:50.340Z,26.44
2023-05-25T11:20:48.970Z,26.44
2023-05-25T11:21:48.907Z,26.46
2023-05-25T11:22:51.024Z,26.49
2023-05-25T11:23:48.933Z,26.49
2023-05-25T11:24:48.959Z,26.50
2023-05-25T11:25:48.950Z,26.51
2023-05-25T11:26:49.000Z,26.53
2023-05-25T11:27:48.960Z,26.55
2023-05-25T11:28:48.946Z,26.58
2023-05-25T11:29:48.953Z,26.61
2023-05-25T11:30:48.929Z,26.60
2023-05-25T11:31:48.932Z,26.53
2023-05-25T11:32:48.937Z,26.37
2023-05-25T11:33:48.897Z,26.35
2023-05-25T11:34:48.883Z,26.32
2023-05-25T11:35:48.909Z,26.30
2023-05-25T11:36:48.890Z,26.32
2023-05-25T11:37:48.841Z,26.32
2023-05-25T11:39:03.114Z,26.33
2023-05-25T11:39:49.905Z,26.33
2023-05-25T11:40:49.134Z,26.35
2023-05-25T11:41:48.869Z,26.37
2023-05-25T11:42:48.836Z,26.31
2023-05-25T11:44:58.147Z,26.04
2023-05-25T11:45:58.184Z,26.11
2023-05-25T11:46:58.213Z,26.16
2023-05-25T11:47:58.137Z,26.22
2023-05-25T11:48:58.124Z,26.27
2023-05-25T11:49:58.132Z,26.32
2023-05-25T11:50:58.118Z,26.37
2023-05-25T11:51:58.124Z,26.41
2023-05-25T11:52:58.077Z,26.45
2023-05-25T11:53:58.082Z,26.49
2023-05-25T11:54:58.101Z,26.50
2023-05-25T11:56:07.652Z,26.53
2023-05-25T11:56:59.175Z,26.58
2023-05-25T11:57:58.053Z,26.59
2023-05-25T11:58:58.058Z,26.64
2023-05-25T11:59:58.084Z,26.65
2023-05-25T12:00:58.010Z,26.66
2023-05-25T12:01:58.011Z,26.67
2023-05-25T12:02:58.048Z,26.69
2023-05-25T12:03:58.166Z,26.70
2023-05-25T12:04:58.049Z,26.72
2023-05-25T12:05:58.009Z,26.73
2023-05-25T12:06:58.009Z,26.74
2023-05-25T12:07:58.004Z,26.75
2023-05-25T12:08:58.018Z,26.76
2023-05-25T12:09:58.088Z,26.78
2023-05-25T12:10:58.132Z,26.79
2023-05-25T12:11:58.141Z,26.81
2023-05-25T12:12:58.225Z,26.83
2023-05-25T12:13:58.195Z,26.85
2023-05-25T12:14:59.090Z,26.86
2023-05-25T12:15:58.290Z,26.89
2023-05-25T12:16:58.398Z,26.91
2023-05-25T12:17:58.381Z,26.92
2023-05-25T12:18:58.415Z,26.94
2023-05-25T12:19:58.473Z,26.96
2023-05-25T12:20:58.513Z,26.96
2023-05-25T12:21:58.451Z,26.99
2023-05-25T12:22:58.494Z,27.02
2023-05-25T12:23:58.528Z,27.05
2023-05-25T12:24:58.563Z,27.06
2023-05-25T12:25:58.591Z,27.09
2023-05-25T12:26:58.598Z,27.10
2023-05-25T12:28:00.227Z,27.11
2023-05-25T12:28:58.650Z,27.11
2023-05-25T12:29:58.645Z,27.11
2023-05-25T12:30:58.718Z,27.13
2023-05-25T12:31:58.711Z,27.15
2023-05-25T12:33:58.695Z,27.20
2023-05-25T12:34:58.773Z,27.21
2023-05-25T12:35:58.784Z,27.24
2023-05-25T12:36:58.748Z,27.26
2023-05-25T12:37:58.762Z,27.28
2023-05-25T12:38:58.781Z,27.30
2023-05-25T12:40:00.143Z,27.32
2023-05-25T12:40:58.798Z,27.34
2023-05-25T12:41:58.764Z,27.36
2023-05-25T12:42:58.816Z,27.38
2023-05-25T12:43:58.812Z,27.41
2023-05-25T12:44:58.830Z,27.42
2023-05-25T12:45:58.886Z,27.45
2023-05-25T12:46:58.942Z,27.46
2023-05-25T12:48:00.147Z,27.47
2023-05-25T12:48:59.053Z,27.50
2023-05-25T12:49:59.086Z,27.52
2023-05-25T12:50:59.111Z,27.53
2023-05-25T12:51:59.132Z,27.55
2023-05-25T12:52:59.191Z,27.57
2023-05-25T12:53:59.257Z,27.58
2023-05-25T12:54:59.266Z,27.60
2023-05-25T12:55:59.348Z,27.62
2023-05-25T12:56:59.385Z,27.65